sensor_id;sensor_type;location;lat;lon;timestamp;pressure;altitude;pressure_sealevel;temperature;humidity
74079;BME280;62437;51.544;-3.276;2022-10-17T00:02:16;100062.51;;;13.84;54.68
74079;BME280;62437;51.544;-3.276;2022-10-17T00:04:42;100065.45;;;13.84;54.57
74079;BME280;62437;51.544;-3.276;2022-10-17T00:07:08;100064.45;;;13.93;53.83
74079;BME280;62437;51.544;-3.276;2022-10-17T00:09:33;100075.52;;;13.79;54.59
74079;BME280;62437;51.544;-3.276;2022-10-17T00:11:59;100075.02;;;14.22;53.71
74079;BME280;62437;51.544;-3.276;2022-10-17T00:14:25;100082.69;;;14.27;54.04
74079;BME280;62437;51.544;-3.276;2022-10-17T00:16:50;100073.20;;;13.83;54.41
74079;BME280;62437;51.544;-3.276;2022-10-17T00:19:16;100071.71;;;14.05;53.87
74079;BME280;62437;51.544;-3.276;2022-10-17T00:21:42;100090.65;;;14.45;53.30
74079;BME280;62437;51.544;-3.276;2022-10-17T00:24:07;100087.65;;;14.72;52.28
74079;BME280;62437;51.544;-3.276;2022-10-17T00:26:33;100080.32;;;14.43;52.57
74079;BME280;62437;51.544;-3.276;2022-10-17T00:28:59;100090.56;;;14.59;53.15
74079;BME280;62437;51.544;-3.276;2022-10-17T00:31:25;100104.87;;;14.18;53.12
74079;BME280;62437;51.544;-3.276;2022-10-17T00:33:50;100108.79;;;14.39;52.44
74079;BME280;62437;51.544;-3.276;2022-10-17T00:36:18;100120.84;;;14.50;53.16
74079;BME280;62437;51.544;-3.276;2022-10-17T00:38:43;100126.42;;;14.15;53.66
74079;BME280;62437;51.544;-3.276;2022-10-17T00:41:08;100126.03;;;14.20;53.29
74079;BME280;62437;51.544;-3.276;2022-10-17T00:45:58;100133.48;;;14.71;51.97
74079;BME280;62437;51.544;-3.276;2022-10-17T00:48:25;100132.66;;;14.78;52.14
74079;BME280;62437;51.544;-3.276;2022-10-17T00:50:51;100134.84;;;15.23;51.10
74079;BME280;62437;51.544;-3.276;2022-10-17T00:53:16;100134.25;;;14.95;51.21
74079;BME280;62437;51.544;-3.276;2022-10-17T00:55:45;100146.02;;;15.26;51.03
74079;BME280;62437;51.544;-3.276;2022-10-17T00:58:07;100147.23;;;14.49;51.48
74079;BME280;62437;51.544;-3.276;2022-10-17T01:00:32;100145.68;;;15.07;50.79
74079;BME280;62437;51.544;-3.276;2022-10-17T01:02:58;100149.90;;;15.13;50.62
74079;BME280;62437;51.544;-3.276;2022-10-17T01:05:23;100147.01;;;15.10;50.35
74079;BME280;62437;51.544;-3.276;2022-10-17T01:07:51;100151.24;;;14.74;51.31
74079;BME280;62437;51.544;-3.276;2022-10-17T01:10:15;100160.96;;;14.95;51.26
74079;BME280;62437;51.544;-3.276;2022-10-17T01:12:51;100164.41;;;15.15;50.40
74079;BME280;62437;51.544;-3.276;2022-10-17T01:15:12;100170.21;;;14.82;50.64
74079;BME280;62437;51.544;-3.276;2022-10-17T01:17:47;100175.17;;;14.88;50.73
74079;BME280;62437;51.544;-3.276;2022-10-17T01:22:26;100175.48;;;14.82;50.52
74079;BME280;62437;51.544;-3.276;2022-10-17T01:25:03;100179.56;;;14.71;50.66
74079;BME280;62437;51.544;-3.276;2022-10-17T01:27:28;100178.42;;;14.63;51.49
74079;BME280;62437;51.544;-3.276;2022-10-17T01:29:51;100177.53;;;15.17;50.89
74079;BME280;62437;51.544;-3.276;2022-10-17T01:32:08;100172.20;;;15.16;50.64
74079;BME280;62437;51.544;-3.276;2022-10-17T01:34:33;100167.69;;;14.01;52.07
74079;BME280;62437;51.544;-3.276;2022-10-17T01:37:01;100169.54;;;14.46;51.13
74079;BME280;62437;51.544;-3.276;2022-10-17T01:39:27;100179.28;;;14.56;51.26
74079;BME280;62437;51.544;-3.276;2022-10-17T01:41:51;100186.84;;;14.52;51.67
74079;BME280;62437;51.544;-3.276;2022-10-17T01:44:17;100185.64;;;14.75;50.90
74079;BME280;62437;51.544;-3.276;2022-10-17T01:46:41;100194.90;;;15.00;50.34
74079;BME280;62437;51.544;-3.276;2022-10-17T01:49:07;100202.53;;;14.66;50.46
74079;BME280;62437;51.544;-3.276;2022-10-17T01:51:33;100203.34;;;14.68;50.88
74079;BME280;62437;51.544;-3.276;2022-10-17T01:54:00;100209.32;;;14.94;50.38
74079;BME280;62437;51.544;-3.276;2022-10-17T01:56:24;100207.64;;;14.84;50.35
74079;BME280;62437;51.544;-3.276;2022-10-17T01:58:51;100212.24;;;14.85;50.04
74079;BME280;62437;51.544;-3.276;2022-10-17T02:01:13;100214.48;;;14.79;50.36
74079;BME280;62437;51.544;-3.276;2022-10-17T02:03:40;100213.76;;;14.84;50.15
74079;BME280;62437;51.544;-3.276;2022-10-17T02:06:05;100223.77;;;15.21;50.90
74079;BME280;62437;51.544;-3.276;2022-10-17T02:08:40;100220.89;;;15.10;49.87
74079;BME280;62437;51.544;-3.276;2022-10-17T02:11:00;100229.54;;;14.86;50.16
74079;BME280;62437;51.544;-3.276;2022-10-17T02:13:29;100230.52;;;15.03;49.93
74079;BME280;62437;51.544;-3.276;2022-10-17T02:15:59;100220.43;;;15.10;50.04
74079;BME280;62437;51.544;-3.276;2022-10-17T02:18:22;100226.49;;;14.63;50.18
74079;BME280;62437;51.544;-3.276;2022-10-17T02:20:44;100219.12;;;14.82;50.31
74079;BME280;62437;51.544;-3.276;2022-10-17T02:23:09;100213.89;;;14.93;50.15
74079;BME280;62437;51.544;-3.276;2022-10-17T02:25:35;100223.77;;;14.63;50.84
74079;BME280;62437;51.544;-3.276;2022-10-17T02:27:59;100219.94;;;13.58;53.74
74079;BME280;62437;51.544;-3.276;2022-10-17T02:30:27;100216.97;;;13.01;55.55
74079;BME280;62437;51.544;-3.276;2022-10-17T02:32:51;100220.72;;;14.14;53.06
74079;BME280;62437;51.544;-3.276;2022-10-17T02:35:14;100214.69;;;14.44;54.04
74079;BME280;62437;51.544;-3.276;2022-10-17T02:37:40;100210.94;;;14.50;51.82
74079;BME280;62437;51.544;-3.276;2022-10-17T02:40:13;100214.93;;;14.27;51.94
74079;BME280;62437;51.544;-3.276;2022-10-17T02:42:30;100212.32;;;14.53;51.42
74079;BME280;62437;51.544;-3.276;2022-10-17T02:44:58;100216.69;;;14.57;51.33
74079;BME280;62437;51.544;-3.276;2022-10-17T02:47:24;100216.15;;;13.98;52.46
74079;BME280;62437;51.544;-3.276;2022-10-17T02:49:49;100225.02;;;14.41;51.81
74079;BME280;62437;51.544;-3.276;2022-10-17T02:52:14;100229.61;;;14.20;51.55
74079;BME280;62437;51.544;-3.276;2022-10-17T02:54:41;100233.44;;;14.40;51.42
74079;BME280;62437;51.544;-3.276;2022-10-17T02:57:07;100236.61;;;14.43;51.45
74079;BME280;62437;51.544;-3.276;2022-10-17T02:59:29;100245.25;;;14.05;51.47
74079;BME280;62437;51.544;-3.276;2022-10-17T03:01:54;100251.04;;;14.57;51.01
74079;BME280;62437;51.544;-3.276;2022-10-17T03:04:20;100258.08;;;14.24;51.90
74079;BME280;62437;51.544;-3.276;2022-10-17T03:06:47;100258.84;;;14.36;52.22
74079;BME280;62437;51.544;-3.276;2022-10-17T03:09:11;100261.83;;;14.18;52.97
74079;BME280;62437;51.544;-3.276;2022-10-17T03:11:37;100266.07;;;14.44;51.08
74079;BME280;62437;51.544;-3.276;2022-10-17T03:14:03;100258.36;;;14.57;50.67
74079;BME280;62437;51.544;-3.276;2022-10-17T03:16:28;100262.99;;;14.64;50.42
74079;BME280;62437;51.544;-3.276;2022-10-17T03:18:53;100263.16;;;14.40;53.15
74079;BME280;62437;51.544;-3.276;2022-10-17T03:21:19;100264.40;;;14.74;51.24
74079;BME280;62437;51.544;-3.276;2022-10-17T03:23:45;100270.18;;;14.52;51.59
74079;BME280;62437;51.544;-3.276;2022-10-17T03:26:10;100267.32;;;14.26;50.53
74079;BME280;62437;51.544;-3.276;2022-10-17T03:28:36;100262.75;;;14.53;50.36
74079;BME280;62437;51.544;-3.276;2022-10-17T03:31:06;100262.35;;;14.54;50.34
74079;BME280;62437;51.544;-3.276;2022-10-17T03:33:27;100269.02;;;14.47;50.47
74079;BME280;62437;51.544;-3.276;2022-10-17T03:35:53;100273.17;;;14.51;52.21
74079;BME280;62437;51.544;-3.276;2022-10-17T03:38:18;100268.92;;;14.30;50.27
74079;BME280;62437;51.544;-3.276;2022-10-17T03:40:44;100274.48;;;14.32;50.40
74079;BME280;62437;51.544;-3.276;2022-10-17T03:43:10;100280.28;;;14.41;50.87
74079;BME280;62437;51.544;-3.276;2022-10-17T03:45:35;100283.21;;;14.32;51.62
74079;BME280;62437;51.544;-3.276;2022-10-17T03:48:00;100287.11;;;14.30;50.26
74079;BME280;62437;51.544;-3.276;2022-10-17T03:50:26;100289.20;;;14.47;49.83
74079;BME280;62437;51.544;-3.276;2022-10-17T03:52:52;100295.22;;;14.30;50.60
74079;BME280;62437;51.544;-3.276;2022-10-17T03:55:17;100297.91;;;14.21;50.69
74079;BME280;62437;51.544;-3.276;2022-10-17T03:57:43;100309.09;;;13.82;50.57
74079;BME280;62437;51.544;-3.276;2022-10-17T04:00:10;100314.81;;;13.79;50.88
74079;BME280;62437;51.544;-3.276;2022-10-17T04:02:34;100317.77;;;14.22;50.20
74079;BME280;62437;51.544;-3.276;2022-10-17T04:05:00;100320.02;;;14.30;50.60
74079;BME280;62437;51.544;-3.276;2022-10-17T04:07:26;100322.64;;;14.29;50.06
74079;BME280;62437;51.544;-3.276;2022-10-17T04:09:51;100325.54;;;14.27;50.43
74079;BME280;62437;51.544;-3.276;2022-10-17T04:12:17;100330.22;;;14.22;50.10
74079;BME280;62437;51.544;-3.276;2022-10-17T04:14:43;100329.19;;;14.10;49.90
74079;BME280;62437;51.544;-3.276;2022-10-17T04:17:08;100331.82;;;14.17;49.74
74079;BME280;62437;51.544;-3.276;2022-10-17T04:19:34;100334.39;;;14.11;53.29
74079;BME280;62437;51.544;-3.276;2022-10-17T04:21:59;100337.59;;;14.46;50.17
74079;BME280;62437;51.544;-3.276;2022-10-17T04:24:25;100345.25;;;14.02;49.87
74079;BME280;62437;51.544;-3.276;2022-10-17T04:26:51;100347.00;;;14.19;50.22
74079;BME280;62437;51.544;-3.276;2022-10-17T04:29:16;100357.32;;;13.93;50.07
74079;BME280;62437;51.544;-3.276;2022-10-17T04:31:42;100362.97;;;13.93;50.53
74079;BME280;62437;51.544;-3.276;2022-10-17T04:34:08;100368.20;;;13.97;53.61
74079;BME280;62437;51.544;-3.276;2022-10-17T04:36:33;100375.51;;;13.87;50.16
74079;BME280;62437;51.544;-3.276;2022-10-17T04:38:59;100377.04;;;13.80;49.73
74079;BME280;62437;51.544;-3.276;2022-10-17T04:41:24;100377.34;;;13.66;50.27
74079;BME280;62437;51.544;-3.276;2022-10-17T04:43:50;100380.86;;;13.91;50.93
74079;BME280;62437;51.544;-3.276;2022-10-17T04:46:16;100387.74;;;13.80;51.73
74079;BME280;62437;51.544;-3.276;2022-10-17T04:48:42;100394.78;;;13.52;50.95
74079;BME280;62437;51.544;-3.276;2022-10-17T04:51:10;100396.80;;;13.85;50.05
74079;BME280;62437;51.544;-3.276;2022-10-17T04:53:34;100401.18;;;13.82;51.29
74079;BME280;62437;51.544;-3.276;2022-10-17T04:55:59;100403.43;;;13.31;50.19
74079;BME280;62437;51.544;-3.276;2022-10-17T04:58:26;100409.81;;;13.53;50.81
74079;BME280;62437;51.544;-3.276;2022-10-17T05:00:50;100415.33;;;13.36;49.70
74079;BME280;62437;51.544;-3.276;2022-10-17T05:03:16;100414.94;;;13.31;50.34
74079;BME280;62437;51.544;-3.276;2022-10-17T05:05:42;100420.22;;;13.25;49.73
74079;BME280;62437;51.544;-3.276;2022-10-17T05:08:08;100423.64;;;13.62;50.65
74079;BME280;62437;51.544;-3.276;2022-10-17T05:10:35;100425.37;;;13.48;50.43
74079;BME280;62437;51.544;-3.276;2022-10-17T05:12:58;100421.83;;;13.32;50.46
74079;BME280;62437;51.544;-3.276;2022-10-17T05:15:24;100422.73;;;13.33;50.01
74079;BME280;62437;51.544;-3.276;2022-10-17T05:17:53;100425.03;;;13.22;49.99
74079;BME280;62437;51.544;-3.276;2022-10-17T05:20:16;100433.62;;;13.26;49.81
74079;BME280;62437;51.544;-3.276;2022-10-17T05:22:41;100439.09;;;13.28;50.42
74079;BME280;62437;51.544;-3.276;2022-10-17T05:25:07;100443.03;;;12.94;51.11
74079;BME280;62437;51.544;-3.276;2022-10-17T05:27:33;100450.49;;;13.07;50.84
74079;BME280;62437;51.544;-3.276;2022-10-17T05:29:58;100453.01;;;12.86;50.45
74079;BME280;62437;51.544;-3.276;2022-10-17T05:32:24;100455.09;;;12.89;50.50
74079;BME280;62437;51.544;-3.276;2022-10-17T05:34:50;100463.83;;;12.98;50.17
74079;BME280;62437;51.544;-3.276;2022-10-17T05:37:15;100467.61;;;12.96;50.79
74079;BME280;62437;51.544;-3.276;2022-10-17T05:39:42;100464.78;;;13.12;49.57
74079;BME280;62437;51.544;-3.276;2022-10-17T05:42:07;100478.24;;;12.90;49.55
74079;BME280;62437;51.544;-3.276;2022-10-17T05:44:33;100486.65;;;12.92;49.71
74079;BME280;62437;51.544;-3.276;2022-10-17T05:46:58;100490.35;;;12.96;49.36
74079;BME280;62437;51.544;-3.276;2022-10-17T05:49:24;100495.34;;;13.02;52.32
74079;BME280;62437;51.544;-3.276;2022-10-17T05:51:50;100502.93;;;12.55;50.27
74079;BME280;62437;51.544;-3.276;2022-10-17T05:54:15;100512.08;;;12.47;50.64
74079;BME280;62437;51.544;-3.276;2022-10-17T05:56:41;100519.71;;;12.85;50.18
74079;BME280;62437;51.544;-3.276;2022-10-17T05:59:07;100525.17;;;12.80;50.81
74079;BME280;62437;51.544;-3.276;2022-10-17T06:01:32;100527.92;;;12.72;50.22
74079;BME280;62437;51.544;-3.276;2022-10-17T06:03:58;100530.55;;;12.62;50.22
74079;BME280;62437;51.544;-3.276;2022-10-17T06:06:24;100534.18;;;12.95;49.70
74079;BME280;62437;51.544;-3.276;2022-10-17T06:08:49;100531.91;;;12.70;51.01
74079;BME280;62437;51.544;-3.276;2022-10-17T06:11:15;100545.33;;;12.45;50.27
74079;BME280;62437;51.544;-3.276;2022-10-17T06:13:41;100548.66;;;12.50;49.90
74079;BME280;62437;51.544;-3.276;2022-10-17T06:16:07;100544.18;;;12.54;49.47
74079;BME280;62437;51.544;-3.276;2022-10-17T06:18:32;100551.63;;;12.72;50.42
74079;BME280;62437;51.544;-3.276;2022-10-17T06:21:02;100553.14;;;12.78;49.75
74079;BME280;62437;51.544;-3.276;2022-10-17T06:23:23;100549.16;;;12.86;49.57
74079;BME280;62437;51.544;-3.276;2022-10-17T06:25:49;100549.72;;;13.00;50.65
74079;BME280;62437;51.544;-3.276;2022-10-17T06:28:15;100553.05;;;13.03;49.39
74079;BME280;62437;51.544;-3.276;2022-10-17T06:30:41;100554.31;;;12.44;49.78
74079;BME280;62437;51.544;-3.276;2022-10-17T06:33:06;100557.99;;;12.79;49.74
74079;BME280;62437;51.544;-3.276;2022-10-17T06:35:32;100559.60;;;12.86;49.89
74079;BME280;62437;51.544;-3.276;2022-10-17T06:37:58;100568.50;;;12.73;49.34
74079;BME280;62437;51.544;-3.276;2022-10-17T06:40:23;100574.48;;;12.55;49.71
74079;BME280;62437;51.544;-3.276;2022-10-17T06:42:49;100578.24;;;12.80;49.20
74079;BME280;62437;51.544;-3.276;2022-10-17T06:45:15;100583.94;;;12.22;51.16
74079;BME280;62437;51.544;-3.276;2022-10-17T06:47:40;100587.63;;;12.69;49.76
74079;BME280;62437;51.544;-3.276;2022-10-17T06:50:06;100595.10;;;12.60;49.95
74079;BME280;62437;51.544;-3.276;2022-10-17T06:52:32;100596.33;;;12.77;49.96
74079;BME280;62437;51.544;-3.276;2022-10-17T06:54:57;100604.66;;;12.74;50.06
74079;BME280;62437;51.544;-3.276;2022-10-17T06:57:23;100609.65;;;13.05;51.18
74079;BME280;62437;51.544;-3.276;2022-10-17T06:59:48;100615.20;;;12.84;49.69
74079;BME280;62437;51.544;-3.276;2022-10-17T07:02:13;100622.42;;;12.94;50.09
74079;BME280;62437;51.544;-3.276;2022-10-17T07:04:39;100628.66;;;12.70;50.48
74079;BME280;62437;51.544;-3.276;2022-10-17T07:07:05;100636.39;;;12.63;51.10
74079;BME280;62437;51.544;-3.276;2022-10-17T07:09:30;100641.14;;;12.64;49.59
74079;BME280;62437;51.544;-3.276;2022-10-17T07:11:56;100645.94;;;12.16;49.77
74079;BME280;62437;51.544;-3.276;2022-10-17T07:14:22;100650.36;;;12.42;50.19
74079;BME280;62437;51.544;-3.276;2022-10-17T07:16:48;100651.90;;;12.52;49.90
74079;BME280;62437;51.544;-3.276;2022-10-17T07:19:13;100654.75;;;12.68;50.18
74079;BME280;62437;51.544;-3.276;2022-10-17T07:21:39;100657.22;;;12.55;49.48
74079;BME280;62437;51.544;-3.276;2022-10-17T07:24:05;100663.84;;;12.24;50.70
74079;BME280;62437;51.544;-3.276;2022-10-17T07:26:30;100662.07;;;12.50;51.01
74079;BME280;62437;51.544;-3.276;2022-10-17T07:28:56;100668.75;;;12.48;51.35
74079;BME280;62437;51.544;-3.276;2022-10-17T07:31:22;100676.57;;;12.51;49.80
74079;BME280;62437;51.544;-3.276;2022-10-17T07:33:49;100679.66;;;12.72;50.04
74079;BME280;62437;51.544;-3.276;2022-10-17T07:36:13;100686.48;;;12.08;50.62
74079;BME280;62437;51.544;-3.276;2022-10-17T07:38:38;100693.12;;;12.09;50.28
74079;BME280;62437;51.544;-3.276;2022-10-17T07:41:07;100697.25;;;12.26;50.25
74079;BME280;62437;51.544;-3.276;2022-10-17T07:43:31;100707.31;;;12.15;50.76
74079;BME280;62437;51.544;-3.276;2022-10-17T07:45:55;100708.34;;;12.38;50.31
74079;BME280;62437;51.544;-3.276;2022-10-17T07:48:22;100718.47;;;12.39;51.17
74079;BME280;62437;51.544;-3.276;2022-10-17T07:50:47;100725.38;;;12.60;50.67
74079;BME280;62437;51.544;-3.276;2022-10-17T07:53:11;100729.32;;;12.45;50.54
74079;BME280;62437;51.544;-3.276;2022-10-17T07:55:37;100733.57;;;12.73;51.67
74079;BME280;62437;51.544;-3.276;2022-10-17T07:58:02;100735.51;;;12.48;51.89
74079;BME280;62437;51.544;-3.276;2022-10-17T08:00:28;100734.77;;;12.26;52.52
74079;BME280;62437;51.544;-3.276;2022-10-17T08:02:54;100737.92;;;12.29;52.71
74079;BME280;62437;51.544;-3.276;2022-10-17T08:05:19;100753.68;;;11.88;54.33
74079;BME280;62437;51.544;-3.276;2022-10-17T08:07:45;100757.66;;;11.99;53.59
74079;BME280;62437;51.544;-3.276;2022-10-17T08:10:12;100766.47;;;11.56;55.58
74079;BME280;62437;51.544;-3.276;2022-10-17T08:12:36;100770.00;;;11.48;55.01
74079;BME280;62437;51.544;-3.276;2022-10-17T08:15:03;100770.04;;;11.57;54.93
74079;BME280;62437;51.544;-3.276;2022-10-17T08:17:28;100780.94;;;11.30;56.00
74079;BME280;62437;51.544;-3.276;2022-10-17T08:19:53;100783.07;;;11.85;54.72
74079;BME280;62437;51.544;-3.276;2022-10-17T08:22:19;100787.99;;;12.18;55.52
74079;BME280;62437;51.544;-3.276;2022-10-17T08:24:44;100795.51;;;11.78;55.60
74079;BME280;62437;51.544;-3.276;2022-10-17T08:27:10;100798.72;;;12.09;56.04
74079;BME280;62437;51.544;-3.276;2022-10-17T08:29:36;100799.71;;;11.96;55.12
74079;BME280;62437;51.544;-3.276;2022-10-17T08:32:01;100807.48;;;12.00;55.57
74079;BME280;62437;51.544;-3.276;2022-10-17T08:34:27;100811.11;;;11.18;57.17
74079;BME280;62437;51.544;-3.276;2022-10-17T08:36:53;100818.09;;;11.34;57.48
74079;BME280;62437;51.544;-3.276;2022-10-17T08:39:18;100819.23;;;11.82;56.38
74079;BME280;62437;51.544;-3.276;2022-10-17T08:41:56;100817.38;;;11.80;55.12
74079;BME280;62437;51.544;-3.276;2022-10-17T08:44:17;100822.40;;;11.67;56.36
74079;BME280;62437;51.544;-3.276;2022-10-17T08:46:40;100828.38;;;11.89;55.71
74079;BME280;62437;51.544;-3.276;2022-10-17T08:49:05;100837.13;;;11.63;56.35
74079;BME280;62437;51.544;-3.276;2022-10-17T08:51:30;100846.67;;;11.54;56.38
74079;BME280;62437;51.544;-3.276;2022-10-17T08:53:59;100845.11;;;11.53;57.04
74079;BME280;62437;51.544;-3.276;2022-10-17T08:56:20;100851.41;;;11.93;56.78
74079;BME280;62437;51.544;-3.276;2022-10-17T08:58:43;100859.97;;;12.15;56.17
74079;BME280;62437;51.544;-3.276;2022-10-17T09:03:45;100870.57;;;12.02;56.02
74079;BME280;62437;51.544;-3.276;2022-10-17T09:06:11;100875.73;;;11.91;59.10
74079;BME280;62437;51.544;-3.276;2022-10-17T09:08:35;100878.32;;;12.00;56.80
74079;BME280;62437;51.544;-3.276;2022-10-17T09:10:56;100879.31;;;11.93;58.60
74079;BME280;62437;51.544;-3.276;2022-10-17T09:13:25;100881.90;;;12.44;55.83
74079;BME280;62437;51.544;-3.276;2022-10-17T09:15:52;100879.08;;;12.65;55.14
74079;BME280;62437;51.544;-3.276;2022-10-17T09:18:11;100886.27;;;12.97;55.05
74079;BME280;62437;51.544;-3.276;2022-10-17T09:20:35;100889.18;;;13.01;54.82
74079;BME280;62437;51.544;-3.276;2022-10-17T09:23:01;100892.64;;;12.66;57.07
74079;BME280;62437;51.544;-3.276;2022-10-17T09:25:25;100895.13;;;12.30;56.82
74079;BME280;62437;51.544;-3.276;2022-10-17T09:27:52;100903.11;;;12.25;57.94
74079;BME280;62437;51.544;-3.276;2022-10-17T09:30:24;100906.47;;;12.87;55.76
74079;BME280;62437;51.544;-3.276;2022-10-17T09:32:40;100914.24;;;12.89;55.33
74079;BME280;62437;51.544;-3.276;2022-10-17T09:35:10;100913.63;;;12.76;56.02
74079;BME280;62437;51.544;-3.276;2022-10-17T09:37:32;100927.89;;;12.73;57.29
74079;BME280;62437;51.544;-3.276;2022-10-17T09:39:57;100927.17;;;12.69;56.87
74079;BME280;62437;51.544;-3.276;2022-10-17T09:42:25;100932.29;;;13.05;55.98
74079;BME280;62437;51.544;-3.276;2022-10-17T09:44:51;100936.92;;;13.24;56.16
74079;BME280;62437;51.544;-3.276;2022-10-17T09:47:25;100949.20;;;13.15;55.43
74079;BME280;62437;51.544;-3.276;2022-10-17T09:49:40;100948.39;;;13.72;54.07
74079;BME280;62437;51.544;-3.276;2022-10-17T09:52:14;100957.67;;;13.09;55.99
74079;BME280;62437;51.544;-3.276;2022-10-17T09:54:40;100959.98;;;13.10;56.67
74079;BME280;62437;51.544;-3.276;2022-10-17T09:56:57;100966.80;;;13.71;54.79
74079;BME280;62437;51.544;-3.276;2022-10-17T09:59:30;100974.70;;;13.08;57.55
74079;BME280;62437;51.544;-3.276;2022-10-17T10:01:46;100979.26;;;12.70;57.99
74079;BME280;62437;51.544;-3.276;2022-10-17T10:04:14;100975.57;;;13.57;54.99
74079;BME280;62437;51.544;-3.276;2022-10-17T10:06:38;100981.87;;;13.29;57.04
74079;BME280;62437;51.544;-3.276;2022-10-17T10:09:03;100983.12;;;13.51;56.44
74079;BME280;62437;51.544;-3.276;2022-10-17T10:13:53;100989.79;;;13.31;57.99
74079;BME280;62437;51.544;-3.276;2022-10-17T10:16:25;100996.74;;;13.20;56.71
74079;BME280;62437;51.544;-3.276;2022-10-17T10:18:44;101001.05;;;12.94;58.08
74079;BME280;62437;51.544;-3.276;2022-10-17T10:21:12;101012.45;;;13.02;58.45
74079;BME280;62437;51.544;-3.276;2022-10-17T10:23:36;101008.56;;;13.92;55.86
74079;BME280;62437;51.544;-3.276;2022-10-17T10:26:03;101010.63;;;14.19;54.16
74079;BME280;62437;51.544;-3.276;2022-10-17T10:28:28;101019.93;;;14.14;55.35
74079;BME280;62437;51.544;-3.276;2022-10-17T10:30:53;101019.18;;;13.59;56.16
74079;BME280;62437;51.544;-3.276;2022-10-17T10:33:19;101019.57;;;13.95;55.15
74079;BME280;62437;51.544;-3.276;2022-10-17T10:35:53;101026.08;;;13.76;55.71
74079;BME280;62437;51.544;-3.276;2022-10-17T10:38:12;101024.46;;;14.33;54.82
74079;BME280;62437;51.544;-3.276;2022-10-17T10:40:37;101029.44;;;14.70;53.64
74079;BME280;62437;51.544;-3.276;2022-10-17T10:43:00;101039.77;;;13.75;55.62
74079;BME280;62437;51.544;-3.276;2022-10-17T10:45:27;101037.51;;;13.76;55.38
74079;BME280;62437;51.544;-3.276;2022-10-17T10:47:52;101031.50;;;14.74;53.99
74079;BME280;62437;51.544;-3.276;2022-10-17T10:50:24;101037.79;;;14.98;53.26
74079;BME280;62437;51.544;-3.276;2022-10-17T10:52:46;101036.06;;;14.92;53.18
74079;BME280;62437;51.544;-3.276;2022-10-17T10:55:15;101033.85;;;14.46;53.61
74079;BME280;62437;51.544;-3.276;2022-10-17T10:57:34;101035.71;;;15.29;52.86
74079;BME280;62437;51.544;-3.276;2022-10-17T11:00:04;101037.48;;;14.69;52.84
74079;BME280;62437;51.544;-3.276;2022-10-17T11:02:29;101043.40;;;14.76;54.14
74079;BME280;62437;51.544;-3.276;2022-10-17T11:04:54;101052.31;;;14.08;55.81
74079;BME280;62437;51.544;-3.276;2022-10-17T11:07:20;101062.12;;;14.36;55.66
74079;BME280;62437;51.544;-3.276;2022-10-17T11:09:48;101078.41;;;14.70;54.06
74079;BME280;62437;51.544;-3.276;2022-10-17T11:12:12;101095.26;;;14.58;54.92
74079;BME280;62437;51.544;-3.276;2022-10-17T11:14:39;101096.48;;;14.72;53.20
74079;BME280;62437;51.544;-3.276;2022-10-17T11:17:02;101113.37;;;14.55;55.20
74079;BME280;62437;51.544;-3.276;2022-10-17T11:19:25;101116.69;;;14.41;54.82
74079;BME280;62437;51.544;-3.276;2022-10-17T11:21:57;101118.35;;;14.68;54.32
74079;BME280;62437;51.544;-3.276;2022-10-17T11:24:18;101123.29;;;14.58;54.11
74079;BME280;62437;51.544;-3.276;2022-10-17T11:26:44;101130.20;;;14.35;54.84
74079;BME280;62437;51.544;-3.276;2022-10-17T11:29:04;101134.88;;;14.60;53.98
74079;BME280;62437;51.544;-3.276;2022-10-17T11:31:32;101135.45;;;14.95;53.22
74079;BME280;62437;51.544;-3.276;2022-10-17T11:33:57;101143.01;;;14.73;54.07
74079;BME280;62437;51.544;-3.276;2022-10-17T11:36:25;101151.79;;;14.72;53.40
74079;BME280;62437;51.544;-3.276;2022-10-17T11:38:49;101151.85;;;14.83;53.64
74079;BME280;62437;51.544;-3.276;2022-10-17T11:41:16;101156.72;;;14.31;54.65
74079;BME280;62437;51.544;-3.276;2022-10-17T11:43:41;101159.42;;;15.11;52.88
74079;BME280;62437;51.544;-3.276;2022-10-17T11:46:06;101171.65;;;14.94;53.15
74079;BME280;62437;51.544;-3.276;2022-10-17T11:48:34;101172.24;;;14.74;54.31
74079;BME280;62437;51.544;-3.276;2022-10-17T11:50:59;101171.28;;;14.64;54.05
74079;BME280;62437;51.544;-3.276;2022-10-17T11:53:22;101172.84;;;14.33;54.85
74079;BME280;62437;51.544;-3.276;2022-10-17T11:55:45;101173.61;;;14.86;53.14
74079;BME280;62437;51.544;-3.276;2022-10-17T11:58:26;101174.48;;;15.43;51.94
74079;BME280;62437;51.544;-3.276;2022-10-17T12:00:47;101182.55;;;14.47;53.65
74079;BME280;62437;51.544;-3.276;2022-10-17T12:03:16;101185.59;;;15.02;52.73
74079;BME280;62437;51.544;-3.276;2022-10-17T12:05:30;101190.28;;;14.96;53.32
74079;BME280;62437;51.544;-3.276;2022-10-17T12:08:02;101197.06;;;14.85;53.67
74079;BME280;62437;51.544;-3.276;2022-10-17T12:10:28;101195.39;;;14.34;54.75
74079;BME280;62437;51.544;-3.276;2022-10-17T12:12:44;101196.01;;;14.73;53.82
74079;BME280;62437;51.544;-3.276;2022-10-17T12:17:35;101200.99;;;14.92;53.51
74079;BME280;62437;51.544;-3.276;2022-10-17T12:22:25;101200.54;;;15.88;51.40
74079;BME280;62437;51.544;-3.276;2022-10-17T12:24:56;101202.34;;;15.31;52.76
74079;BME280;62437;51.544;-3.276;2022-10-17T12:27:32;101214.77;;;14.98;53.62
74079;BME280;62437;51.544;-3.276;2022-10-17T12:29:41;101223.53;;;15.74;51.92
74079;BME280;62437;51.544;-3.276;2022-10-17T12:32:10;101229.43;;;14.76;54.90
74079;BME280;62437;51.544;-3.276;2022-10-17T12:34:33;101233.49;;;15.23;52.95
74079;BME280;62437;51.544;-3.276;2022-10-17T12:36:58;101231.10;;;15.19;53.27
74079;BME280;62437;51.544;-3.276;2022-10-17T12:41:52;101238.58;;;15.25;53.70
74079;BME280;62437;51.544;-3.276;2022-10-17T12:46:47;101239.13;;;14.68;54.73
74079;BME280;62437;51.544;-3.276;2022-10-17T12:49:19;101228.79;;;15.64;52.40
74079;BME280;62437;51.544;-3.276;2022-10-17T12:53:59;101233.25;;;15.37;54.26